Terminal Aerodrome Forecast
Issued by NWS Twin Cities, MN

Home | Current Version | Previous Version | Text Only | Print | Product List | Glossary On
Versions: 1 2 3 4 5 6 7 8 9 10 11 12 13 14 15 16 17 18 19 20
000
FTUS43 KMPX 291412 AAA
TAFEAU
TAF AMD
KEAU 291412Z 2914/3012 24006KT P6SM VCSH SCT015 BKN025
     FM291700 27011G17KT P6SM SCT020 BKN035
     FM292000 27012G18KT P6SM VCSH SCT025 BKN045
     FM300100 25005KT P6SM FEW050
     FM300800 VRB03KT 2SM BR FEW004=

USA.gov is the U.S. government's official web portal to all federal, state and local government web resources and services.